Terminal Aerodrome Forecast
Issued by NWS

Home | Current Version | Previous Version | Text Only | Print | Product List | Glossary On
Versions: 1 2 3 4 5 6 7 8 9 10 11 12 13
000
FTUS43 KMPX 011800 AAA
TAFAXN
TAF AMD
KAXN 011851Z 0119/0218 31007KT P6SM VCTS BKN050CB
      TEMPO 0119/0121 5SM -TSRA BKN040CB
     FM012200 30006KT P6SM SCT060
     FM020200 VRB02KT P6SM SKC
     FM021500 20005KT P6SM SCT050=

USA.gov is the U.S. government's official web portal to all federal, state and local government web resources and services.